Time;durP1;ratioP1;P1;durP2;ratioP2;P2;SDS_P1;SDS_P2;PMS_P1;PMS_P2;Temp;Humidity;BMP_temperature;BMP_pressure;BME280_temperature;BME280_humidity;BME280_pressure;Samples;Min_cycle;Max_cycle;Signal;HPM_P1;HPM_P2
2021/12/08 00:00:41;;;;;;;61.47;22.42;;;;;;;;;;6195463;28;20046;-61
2021/12/08 00:03:42;;;;;;;65.90;23.63;;;;;;;;;;6195749;28;20134;-62
2021/12/08 00:06:43;;;;;;;61.08;23.92;;;;;;;;;;6196215;28;20038;-61
2021/12/08 00:13:05;;;;;;;59.33;23.77;;;;;;;;;;6196521;28;20058;-61
2021/12/08 00:16:10;;;;;;;68.80;25.77;;;;;;;;;;6198432;28;20155;-61
2021/12/08 00:19:11;;;;;;;64.47;24.30;;;;;;;;;;6200947;28;20450;-64
2021/12/08 00:22:11;;;;;;;68.07;25.30;;;;;;;;;;6200015;28;20064;-62
2021/12/08 00:25:12;;;;;;;70.63;24.02;;;;;;;;;;6195124;28;20490;-60
2021/12/08 00:28:14;;;;;;;70.05;26.45;;;;;;;;;;6200645;28;20713;-61
2021/12/08 00:31:15;;;;;;;72.35;25.95;;;;;;;;;;6213567;28;20061;-60
2021/12/08 00:34:16;;;;;;;79.60;26.67;;;;;;;;;;6212590;28;20203;-61
2021/12/08 00:37:17;;;;;;;72.72;25.42;;;;;;;;;;6215636;28;20046;-63
2021/12/08 00:40:18;;;;;;;76.20;23.65;;;;;;;;;;6208210;28;20046;-61
2021/12/08 00:43:20;;;;;;;66.63;22.95;;;;;;;;;;6196704;28;20429;-65
2021/12/08 00:46:20;;;;;;;62.13;21.87;;;;;;;;;;6213102;28;20116;-62
2021/12/08 00:49:21;;;;;;;68.00;22.10;;;;;;;;;;6206407;28;20184;-62
2021/12/08 00:52:24;;;;;;;57.08;20.83;;;;;;;;;;6206455;28;20406;-61
2021/12/08 00:55:27;;;;;;;63.55;20.83;;;;;;;;;;6200401;28;20046;-61
2021/12/08 00:58:27;;;;;;;57.95;19.17;;;;;;;;;;6204344;28;20054;-63
2021/12/08 01:01:30;;;;;;;59.05;20.30;;;;;;;;;;6205244;28;20408;-61
2021/12/08 01:04:35;;;;;;;54.65;17.95;;;;;;;;;;6200162;28;20081;-61
2021/12/08 01:07:36;;;;;;;52.78;18.90;;;;;;;;;;6203510;28;20706;-60
2021/12/08 01:10:39;;;;;;;49.50;18.85;;;;;;;;;;6204372;28;20050;-61
2021/12/08 01:13:40;;;;;;;46.47;17.33;;;;;;;;;;6202935;28;20078;-61
2021/12/08 01:16:41;;;;;;;45.88;17.83;;;;;;;;;;6199686;28;20144;-61
2021/12/08 01:19:42;;;;;;;46.72;17.60;;;;;;;;;;6206424;28;20119;-62
2021/12/08 01:22:45;;;;;;;54.08;18.65;;;;;;;;;;6203504;28;20053;-61
2021/12/08 01:25:45;;;;;;;46.42;17.73;;;;;;;;;;6198499;28;20064;-61
2021/12/08 01:28:46;;;;;;;42.58;16.42;;;;;;;;;;6203859;28;20050;-61
2021/12/08 01:31:47;;;;;;;40.75;15.35;;;;;;;;;;6204510;28;20074;-61
2021/12/08 01:34:48;;;;;;;44.08;15.45;;;;;;;;;;6200281;28;20045;-62
2021/12/08 01:37:49;;;;;;;42.40;16.40;;;;;;;;;;6202634;28;20049;-60
2021/12/08 01:40:52;;;;;;;43.97;14.95;;;;;;;;;;6204575;28;20133;-61
2021/12/08 01:47:12;;;;;;;41.65;16.40;;;;;;;;;;6200091;28;20177;-62
2021/12/08 01:50:13;;;;;;;41.42;16.13;;;;;;;;;;6199560;28;20098;-64
2021/12/08 01:53:14;;;;;;;38.42;14.05;;;;;;;;;;6205656;28;20428;-60
2021/12/08 01:56:18;;;;;;;38.97;14.90;;;;;;;;;;6200435;28;20050;-60
2021/12/08 01:59:18;;;;;;;43.03;14.40;;;;;;;;;;6203007;28;20045;-63
2021/12/08 02:02:19;;;;;;;41.72;15.02;;;;;;;;;;6204511;28;20053;-61
2021/12/08 02:05:20;;;;;;;43.95;15.40;;;;;;;;;;6204642;28;20050;-61
2021/12/08 02:08:22;;;;;;;41.72;15.93;;;;;;;;;;6207784;28;20046;-60
2021/12/08 02:11:23;;;;;;;37.03;13.25;;;;;;;;;;6206897;28;20060;-60
2021/12/08 02:14:24;;;;;;;38.08;13.45;;;;;;;;;;6207701;28;20142;-60
2021/12/08 02:17:25;;;;;;;46.20;15.40;;;;;;;;;;6207192;28;20060;-60
2021/12/08 02:20:28;;;;;;;44.07;15.87;;;;;;;;;;6201045;28;20050;-62
2021/12/08 02:23:31;;;;;;;49.13;16.77;;;;;;;;;;6203582;28;20345;-61
2021/12/08 02:26:33;;;;;;;40.67;15.23;;;;;;;;;;6205279;28;20046;-63
2021/12/08 02:29:40;;;;;;;42.75;15.45;;;;;;;;;;6209101;28;20061;-61
2021/12/08 02:49:24;;;;;;;52.65;16.73;;;;;;;;;;6207282;28;20046;-62
2021/12/08 02:52:25;;;;;;;47.88;15.77;;;;;;;;;;6208060;28;20057;-61
2021/12/08 02:55:28;;;;;;;43.13;15.00;;;;;;;;;;6207788;28;20065;-60
2021/12/08 02:58:28;;;;;;;45.88;15.68;;;;;;;;;;6201998;28;20073;-61
2021/12/08 03:01:30;;;;;;;46.95;16.17;;;;;;;;;;6203549;28;20042;-61
2021/12/08 03:04:31;;;;;;;53.15;16.58;;;;;;;;;;6203135;28;20078;-60
2021/12/08 03:07:31;;;;;;;47.95;15.90;;;;;;;;;;6205092;28;20442;-60
2021/12/08 03:10:36;;;;;;;40.65;14.82;;;;;;;;;;6207753;28;20083;-60
2021/12/08 03:13:41;;;;;;;49.20;16.25;;;;;;;;;;6207497;28;20053;-60
2021/12/08 03:16:49;;;;;;;48.20;15.68;;;;;;;;;;6206059;28;20057;-62
2021/12/08 03:19:50;;;;;;;49.20;15.60;;;;;;;;;;6203916;28;20061;-60
2021/12/08 03:22:58;;;;;;;49.53;15.07;;;;;;;;;;6205181;28;20046;-60
2021/12/08 03:26:02;;;;;;;42.75;14.45;;;;;;;;;;6203252;28;20132;-60
2021/12/08 03:29:17;;;;;;;41.50;14.00;;;;;;;;;;6202208;28;20119;-61
2021/12/08 03:32:27;;;;;;;44.17;14.98;;;;;;;;;;6204039;28;20046;-61
2021/12/08 03:35:28;;;;;;;39.67;14.70;;;;;;;;;;6203238;28;20085;-61
2021/12/08 03:38:30;;;;;;;47.35;14.93;;;;;;;;;;6206094;28;20042;-62
2021/12/08 03:41:33;;;;;;;48.13;14.45;;;;;;;;;;6205818;28;20041;-61
2021/12/08 03:44:34;;;;;;;45.28;15.88;;;;;;;;;;6202776;28;20061;-61
2021/12/08 03:47:43;;;;;;;47.25;15.43;;;;;;;;;;6209085;28;20509;-61
2021/12/08 03:50:43;;;;;;;49.88;16.10;;;;;;;;;;6216248;28;20184;-60
2021/12/08 03:53:44;;;;;;;44.00;15.60;;;;;;;;;;6217110;28;20061;-60
2021/12/08 03:56:45;;;;;;;46.25;16.00;;;;;;;;;;6204760;28;20137;-60
2021/12/08 03:59:45;;;;;;;46.40;15.95;;;;;;;;;;6204603;28;20073;-60
2021/12/08 04:02:47;;;;;;;54.60;17.45;;;;;;;;;;6205400;28;20132;-61
2021/12/08 04:06:00;;;;;;;47.90;15.25;;;;;;;;;;6202362;28;20072;-60
2021/12/08 04:09:05;;;;;;;47.42;16.58;;;;;;;;;;6205539;28;20057;-64
2021/12/08 04:12:08;;;;;;;54.53;17.05;;;;;;;;;;6203218;28;20073;-61
2021/12/08 04:15:10;;;;;;;49.25;16.60;;;;;;;;;;6199243;28;20043;-60
2021/12/08 04:18:11;;;;;;;50.15;17.15;;;;;;;;;;6199196;28;20137;-64
2021/12/08 04:21:15;;;;;;;50.58;16.45;;;;;;;;;;6205679;28;20133;-62
2021/12/08 04:24:16;;;;;;;51.25;17.38;;;;;;;;;;6201208;28;20053;-63
2021/12/08 04:27:22;;;;;;;52.13;17.20;;;;;;;;;;6204697;28;20107;-61
2021/12/08 04:30:34;;;;;;;48.38;16.90;;;;;;;;;;6204579;28;20049;-60
2021/12/08 04:33:36;;;;;;;47.20;17.60;;;;;;;;;;6206510;28;20054;-61
2021/12/08 04:36:44;;;;;;;51.65;19.33;;;;;;;;;;6203290;28;20054;-61
2021/12/08 04:43:57;;;;;;;53.65;18.23;;;;;;;;;;6216952;28;20048;-61
2021/12/08 04:50:24;;;;;;;42.33;15.13;;;;;;;;;;6194818;28;20056;-60
2021/12/08 05:10:36;;;;;;;37.60;12.65;;;;;;;;;;6201813;28;20130;-60
2021/12/08 05:13:37;;;;;;;34.10;12.65;;;;;;;;;;6205580;28;20050;-60
2021/12/08 05:16:40;;;;;;;38.20;13.20;;;;;;;;;;6202390;28;20057;-60
2021/12/08 05:19:43;;;;;;;36.35;12.73;;;;;;;;;;6206400;28;20050;-59
2021/12/08 05:22:52;;;;;;;31.17;12.13;;;;;;;;;;6202687;28;20077;-60
2021/12/08 05:25:53;;;;;;;31.48;12.63;;;;;;;;;;6202618;28;20080;-60
2021/12/08 05:28:59;;;;;;;49.30;19.35;;;;;;;;;;6200478;28;21470;-62
2021/12/08 05:32:02;;;;;;;33.47;14.00;;;;;;;;;;6200795;28;20057;-62
2021/12/08 05:35:07;;;;;;;34.78;13.40;;;;;;;;;;6202452;28;20053;-64
2021/12/08 05:38:11;;;;;;;40.50;13.38;;;;;;;;;;6199857;28;20426;-62
2021/12/08 05:41:31;;;;;;;31.63;11.68;;;;;;;;;;6204352;28;20054;-61
2021/12/08 05:44:32;;;;;;;38.35;12.88;;;;;;;;;;6201700;28;20084;-62
2021/12/08 05:47:33;;;;;;;43.03;14.80;;;;;;;;;;6200071;28;21008;-63
2021/12/08 05:50:41;;;;;;;43.85;13.77;;;;;;;;;;6203089;28;20054;-60
2021/12/08 05:53:44;;;;;;;51.05;17.50;;;;;;;;;;6204661;28;20481;-64
2021/12/08 05:56:46;;;;;;;52.72;19.08;;;;;;;;;;6205636;28;20137;-60
2021/12/08 05:59:49;;;;;;;45.60;15.98;;;;;;;;;;6203987;28;20046;-62
2021/12/08 06:02:49;;;;;;;53.97;19.42;;;;;;;;;;6200655;28;21027;-60
2021/12/08 06:05:52;;;;;;;57.92;19.88;;;;;;;;;;6201921;28;20137;-60
2021/12/08 06:08:53;;;;;;;;;;;;;;;;;;6197446;28;20574;-60
2021/12/08 06:11:55;;;;;;;51.67;17.83;;;;;;;;;;6201570;28;20455;-61
2021/12/08 06:14:56;;;;;;;44.80;15.05;;;;;;;;;;6200503;28;20104;-59
2021/12/08 06:17:57;;;;;;;56.00;17.93;;;;;;;;;;6201014;28;20042;-62
2021/12/08 06:20:59;;;;;;;50.63;17.42;;;;;;;;;;6200746;28;20038;-65
2021/12/08 06:24:05;;;;;;;43.05;14.60;;;;;;;;;;6205688;28;20045;-62
2021/12/08 06:27:06;;;;;;;40.15;14.18;;;;;;;;;;6205856;28;20057;-61
2021/12/08 06:30:11;;;;;;;33.03;12.63;;;;;;;;;;6201352;28;20100;-61
2021/12/08 06:33:14;;;;;;;41.05;14.85;;;;;;;;;;6198502;28;20112;-64
2021/12/08 06:36:30;;;;;;;53.55;17.92;;;;;;;;;;6203372;28;20068;-61
2021/12/08 06:39:39;;;;;;;46.65;16.98;;;;;;;;;;6203192;28;20057;-62
2021/12/08 06:42:44;;;;;;;49.00;17.63;;;;;;;;;;6202246;28;20041;-64
2021/12/08 06:45:49;;;;;;;50.83;19.65;;;;;;;;;;6204008;28;20058;-65
2021/12/08 06:48:54;;;;;;;42.20;14.82;;;;;;;;;;6202683;28;20149;-61
2021/12/08 06:52:19;;;;;;;44.28;16.83;;;;;;;;;;6192568;28;20054;-62
2021/12/08 06:55:25;;;;;;;36.50;14.35;;;;;;;;;;6197021;28;20062;-61
2021/12/08 06:58:32;;;;;;;31.20;13.20;;;;;;;;;;6216255;28;20455;-61
2021/12/08 07:01:49;;;;;;;35.80;13.25;;;;;;;;;;6212432;28;20401;-61
2021/12/08 07:05:07;;;;;;;39.92;13.88;;;;;;;;;;6206781;28;20046;-61
2021/12/08 07:08:09;;;;;;;43.15;15.50;;;;;;;;;;6214757;28;20125;-63
2021/12/08 07:11:13;;;;;;;41.92;13.48;;;;;;;;;;6194771;28;20174;-63
2021/12/08 07:14:15;;;;;;;33.40;12.90;;;;;;;;;;6209275;28;20072;-62
2021/12/08 07:17:21;;;;;;;40.05;12.13;;;;;;;;;;6196293;28;20054;-66
2021/12/08 07:20:42;;;;;;;35.50;13.02;;;;;;;;;;6195866;28;20516;-61
2021/12/08 07:23:49;;;;;;;41.45;13.80;;;;;;;;;;6200646;28;20133;-63
2021/12/08 07:26:53;;;;;;;35.08;12.52;;;;;;;;;;6195625;28;20049;-61
2021/12/08 07:29:58;;;;;;;42.38;14.00;;;;;;;;;;6200988;28;20485;-62
2021/12/08 07:32:59;;;;;;;37.28;13.15;;;;;;;;;;6194626;28;20046;-61
2021/12/08 07:36:05;;;;;;;34.00;13.25;;;;;;;;;;6193681;28;20046;-66
2021/12/08 07:39:14;;;;;;;34.03;12.80;;;;;;;;;;6222585;28;20061;-66
2021/12/08 07:42:22;;;;;;;39.00;13.55;;;;;;;;;;6192466;28;20046;-63
2021/12/08 07:45:35;;;;;;;33.05;12.50;;;;;;;;;;6197743;28;20133;-61
2021/12/08 07:48:48;;;;;;;34.92;12.75;;;;;;;;;;6198621;28;20092;-59
2021/12/08 07:51:50;;;;;;;;;;;;;;;;;;6216431;28;20136;-62
2021/12/08 07:54:52;;;;;;;31.55;13.40;;;;;;;;;;6202871;28;20221;-61
2021/12/08 07:57:54;;;;;;;37.57;12.87;;;;;;;;;;6199173;28;20046;-60
2021/12/08 08:01:07;;;;;;;41.60;13.20;;;;;;;;;;6197076;28;20295;-63
2021/12/08 08:04:11;;;;;;;41.08;13.85;;;;;;;;;;6202449;28;20189;-62
2021/12/08 08:07:13;;;;;;;39.50;13.88;;;;;;;;;;6207695;28;20504;-64
2021/12/08 08:10:16;;;;;;;41.10;14.95;;;;;;;;;;6206649;28;20066;-63
2021/12/08 08:13:19;;;;;;;38.05;12.93;;;;;;;;;;6207156;28;20058;-61
2021/12/08 08:16:25;;;;;;;41.60;15.02;;;;;;;;;;6211510;28;20068;-62
2021/12/08 08:19:30;;;;;;;43.25;14.40;;;;;;;;;;6209839;28;20104;-61
2021/12/08 08:22:32;;;;;;;44.97;16.30;;;;;;;;;;6212801;28;20060;-63
2021/12/08 08:25:39;;;;;;;48.38;17.23;;;;;;;;;;6206271;28;20096;-61
2021/12/08 08:28:41;;;;;;;33.30;13.13;;;;;;;;;;6211296;28;20432;-60
2021/12/08 08:31:46;;;;;;;;;;;;;;;;;;6213052;28;20488;-61
2021/12/08 08:34:52;;;;;;;38.25;13.02;;;;;;;;;;6209686;28;20474;-61
2021/12/08 08:37:53;;;;;;;33.15;11.63;;;;;;;;;;6211921;28;20060;-60
2021/12/08 08:41:00;;;;;;;35.10;13.30;;;;;;;;;;6207361;28;20042;-61
2021/12/08 08:44:06;;;;;;;37.30;12.35;;;;;;;;;;6206725;28;20516;-67
2021/12/08 08:47:12;;;;;;;32.47;12.10;;;;;;;;;;6208443;28;20229;-61
2021/12/08 08:50:20;;;;;;;36.28;13.80;;;;;;;;;;6191619;28;20046;-61
2021/12/08 08:53:25;;;;;;;34.53;12.75;;;;;;;;;;6192298;28;20470;-62
2021/12/08 08:56:33;;;;;;;28.73;13.50;;;;;;;;;;6199809;28;20046;-60
2021/12/08 08:59:42;;;;;;;34.92;12.68;;;;;;;;;;6206152;28;20108;-62
2021/12/08 09:02:43;;;;;;;38.47;12.73;;;;;;;;;;6213241;28;20054;-61
2021/12/08 09:05:55;;;;;;;36.15;14.27;;;;;;;;;;6211582;28;20141;-60
2021/12/08 09:08:56;;;;;;;29.60;12.48;;;;;;;;;;6209559;28;20050;-60
2021/12/08 09:12:14;;;;;;;35.88;13.30;;;;;;;;;;6207648;28;20060;-61
2021/12/08 09:15:24;;;;;;;31.90;13.82;;;;;;;;;;6205180;28;20140;-61
2021/12/08 09:18:37;;;;;;;33.72;12.07;;;;;;;;;;6213539;28;20172;-62
2021/12/08 09:22:04;;;;;;;32.72;13.05;;;;;;;;;;6210188;28;20057;-61
2021/12/08 09:25:52;;;;;;;33.22;12.73;;;;;;;;;;6210968;28;20117;-61
2021/12/08 09:29:15;;;;;;;39.33;15.95;;;;;;;;;;6206172;28;20041;-62
2021/12/08 09:32:18;;;;;;;35.70;14.85;;;;;;;;;;6214784;28;20153;-61
2021/12/08 09:35:26;;;;;;;;;;;;;;;;;;6200288;28;20060;-64
2021/12/08 09:38:43;;;;;;;39.20;14.48;;;;;;;;;;6197133;28;19921;-65
2021/12/08 09:42:09;;;;;;;38.67;14.82;;;;;;;;;;6208261;28;20405;-62
2021/12/08 09:45:31;;;;;;;35.95;13.35;;;;;;;;;;6199355;28;20065;-62
2021/12/08 09:48:32;;;;;;;32.38;12.70;;;;;;;;;;6204634;28;20046;-64
2021/12/08 09:51:34;;;;;;;40.53;15.68;;;;;;;;;;6203109;28;20142;-61
2021/12/08 09:54:37;;;;;;;35.20;13.98;;;;;;;;;;6194840;28;20416;-65
2021/12/08 09:57:38;;;;;;;37.60;13.52;;;;;;;;;;6211372;28;20042;-61
2021/12/08 10:00:43;;;;;;;41.05;14.65;;;;;;;;;;6194714;28;20058;-59
2021/12/08 10:03:44;;;;;;;42.03;14.27;;;;;;;;;;6203775;28;20042;-61
2021/12/08 10:06:49;;;;;;;35.67;12.15;;;;;;;;;;6207881;28;20061;-61
2021/12/08 10:09:50;;;;;;;30.85;12.40;;;;;;;;;;6214133;28;20133;-62
2021/12/08 10:12:51;;;;;;;37.67;13.70;;;;;;;;;;6212948;28;20046;-62
2021/12/08 10:15:51;;;;;;;36.67;14.02;;;;;;;;;;6197328;28;20104;-62
2021/12/08 10:18:53;;;;;;;39.13;15.70;;;;;;;;;;6188973;28;20132;-60
2021/12/08 10:21:54;;;;;;;42.20;15.43;;;;;;;;;;6197559;28;20053;-65
2021/12/08 10:25:19;;;;;;;37.50;13.43;;;;;;;;;;6210119;28;20135;-61
2021/12/08 10:28:30;;;;;;;36.70;15.05;;;;;;;;;;6196498;28;21117;-60
2021/12/08 10:31:34;;;;;;;39.38;14.07;;;;;;;;;;6193829;28;20054;-64
2021/12/08 10:35:04;;;;;;;42.30;13.93;;;;;;;;;;6202993;28;20101;-61
2021/12/08 10:38:02;;;;;;;45.80;16.17;;;;;;;;;;6196612;28;20042;-62
2021/12/08 10:41:06;;;;;;;37.50;15.18;;;;;;;;;;6210543;28;20050;-62
2021/12/08 10:44:06;;;;;;;35.08;14.25;;;;;;;;;;6202895;28;20054;-61
2021/12/08 10:47:08;;;;;;;46.97;16.30;;;;;;;;;;6199402;28;20049;-61
2021/12/08 10:57:01;;;;;;;37.00;13.57;;;;;;;;;;6194261;28;20046;-62
2021/12/08 11:00:12;;;;;;;36.50;13.48;;;;;;;;;;6199323;28;20070;-62
2021/12/08 11:03:13;;;;;;;38.28;14.93;;;;;;;;;;6202382;28;20501;-66
2021/12/08 11:06:16;;;;;;;37.00;14.00;;;;;;;;;;6209815;28;20453;-62
2021/12/08 11:09:21;;;;;;;41.13;15.60;;;;;;;;;;6216354;28;20064;-61
2021/12/08 11:12:37;;;;;;;39.85;15.07;;;;;;;;;;6196967;28;20525;-61
2021/12/08 11:15:39;;;;;;;42.78;14.52;;;;;;;;;;6214827;28;20084;-60
2021/12/08 11:18:43;;;;;;;34.15;15.07;;;;;;;;;;6204701;28;20409;-63
2021/12/08 11:21:55;;;;;;;41.33;14.70;;;;;;;;;;6213352;28;20073;-59
2021/12/08 11:24:58;;;;;;;37.78;14.23;;;;;;;;;;6214044;28;20050;-59
2021/12/08 11:28:33;;;;;;;42.90;16.98;;;;;;;;;;6216896;28;20050;-61
2021/12/08 11:31:43;;;;;;;54.25;19.80;;;;;;;;;;6212825;28;20132;-60
2021/12/08 11:34:47;;;;;;;51.85;19.15;;;;;;;;;;6195211;28;20054;-62
2021/12/08 11:38:00;;;;;;;32.78;14.52;;;;;;;;;;6200398;28;20496;-61
2021/12/08 11:41:00;;;;;;;;;;;;;;;;;;6197014;28;20498;-61
2021/12/08 11:44:05;;;;;;;41.85;16.35;;;;;;;;;;6198047;28;19929;-59
2021/12/08 11:47:09;;;;;;;33.92;14.75;;;;;;;;;;6197130;28;20046;-58
2021/12/08 11:50:21;;;;;;;35.53;13.48;;;;;;;;;;6193201;28;20512;-59
2021/12/08 11:53:21;;;;;;;35.38;14.15;;;;;;;;;;6195346;28;20038;-63
2021/12/08 11:56:34;;;;;;;41.03;15.93;;;;;;;;;;6195962;28;20141;-64
2021/12/08 11:59:48;;;;;;;38.15;16.63;;;;;;;;;;6197972;28;20119;-66
2021/12/08 12:02:58;;;;;;;41.15;16.58;;;;;;;;;;6189211;28;20599;-66
2021/12/08 12:05:59;;;;;;;39.65;15.40;;;;;;;;;;6189255;28;20065;-62
2021/12/08 12:09:01;;;;;;;38.47;15.20;;;;;;;;;;6191948;28;20475;-60
2021/12/08 12:12:02;;;;;;;40.70;16.95;;;;;;;;;;6194465;28;20988;-62
2021/12/08 12:15:09;;;;;;;42.53;17.20;;;;;;;;;;6190517;28;20224;-60
2021/12/08 12:18:10;;;;;;;43.33;16.55;;;;;;;;;;6199570;28;20046;-61
2021/12/08 12:21:42;;;;;;;46.05;18.65;;;;;;;;;;6194176;28;20043;-62
2021/12/08 12:25:19;;;;;;;44.00;17.17;;;;;;;;;;6195350;28;20054;-61
2021/12/08 12:28:57;;;;;;;44.88;16.25;;;;;;;;;;6195271;28;21222;-62
2021/12/08 12:32:17;;;;;;;41.35;17.15;;;;;;;;;;6195078;28;20402;-60
2021/12/08 12:35:20;;;;;;;39.33;16.00;;;;;;;;;;6190252;28;20386;-66
2021/12/08 12:38:36;;;;;;;35.35;15.75;;;;;;;;;;6189731;28;20096;-61
2021/12/08 12:41:37;;;;;;;38.17;14.77;;;;;;;;;;6189444;28;20093;-60
2021/12/08 12:44:41;;;;;;;38.97;16.37;;;;;;;;;;6191199;28;20109;-61
2021/12/08 12:48:03;;;;;;;41.47;17.48;;;;;;;;;;6190172;28;20480;-61
2021/12/08 12:51:10;;;;;;;46.97;19.45;;;;;;;;;;6200355;28;20169;-61
2021/12/08 12:54:23;;;;;;;49.22;19.42;;;;;;;;;;6195331;28;20050;-65
2021/12/08 12:57:24;;;;;;;39.33;14.57;;;;;;;;;;6192189;28;20047;-62
2021/12/08 13:00:36;;;;;;;42.67;17.27;;;;;;;;;;6195811;28;20077;-62
2021/12/08 13:03:42;;;;;;;38.00;16.13;;;;;;;;;;6194288;28;20372;-67
2021/12/08 13:06:47;;;;;;;42.38;16.83;;;;;;;;;;6192821;28;20493;-63
2021/12/08 13:09:52;;;;;;;51.00;19.10;;;;;;;;;;6194575;28;20056;-66
2021/12/08 13:12:53;;;;;;;51.22;20.67;;;;;;;;;;6197268;28;20196;-64
2021/12/08 13:15:53;;;;;;;47.95;17.67;;;;;;;;;;6189218;28;20058;-68
2021/12/08 13:18:58;;;;;;;58.47;20.58;;;;;;;;;;6190192;28;20619;-67
2021/12/08 13:21:59;;;;;;;45.65;18.42;;;;;;;;;;6193141;28;20065;-64
2021/12/08 13:25:00;;;;;;;46.70;17.33;;;;;;;;;;6187363;28;20081;-66
2021/12/08 13:28:11;;;;;;;44.55;16.17;;;;;;;;;;6199025;28;20806;-64
2021/12/08 13:31:26;;;;;;;45.08;17.38;;;;;;;;;;6188373;28;20042;-63
2021/12/08 13:34:33;;;;;;;52.70;20.05;;;;;;;;;;6191333;28;20142;-62
2021/12/08 13:37:34;;;;;;;48.95;18.38;;;;;;;;;;6186155;28;20050;-59
2021/12/08 13:40:47;;;;;;;52.78;20.30;;;;;;;;;;6188315;28;20819;-60
2021/12/08 13:43:52;;;;;;;58.65;20.23;;;;;;;;;;6185718;28;20118;-59
2021/12/08 13:46:55;;;;;;;49.20;17.77;;;;;;;;;;6194125;28;20049;-64
2021/12/08 13:50:03;;;;;;;63.25;23.77;;;;;;;;;;6189892;28;20493;-64
2021/12/08 13:53:10;;;;;;;43.97;17.30;;;;;;;;;;6197853;28;20069;-65
2021/12/08 13:56:11;;;;;;;53.67;20.20;;;;;;;;;;6187441;28;20073;-63
2021/12/08 13:59:44;;;;;;;55.08;22.83;;;;;;;;;;6189096;28;20048;-65
2021/12/08 14:02:49;;;;;;;59.38;22.20;;;;;;;;;;6197716;28;20052;-66
2021/12/08 14:05:53;;;;;;;51.47;20.70;;;;;;;;;;6192169;28;20055;-65
2021/12/08 14:08:53;;;;;;;60.28;23.40;;;;;;;;;;6201155;28;20469;-66
2021/12/08 14:11:54;;;;;;;60.00;25.23;;;;;;;;;;6201896;28;20054;-64
2021/12/08 14:14:59;;;;;;;59.92;22.15;;;;;;;;;;6201454;28;20066;-64
2021/12/08 14:18:24;;;;;;;63.90;23.88;;;;;;;;;;6199612;28;20042;-65
2021/12/08 14:21:32;;;;;;;53.13;21.25;;;;;;;;;;6193398;28;20062;-60
2021/12/08 14:24:33;;;;;;;51.83;22.40;;;;;;;;;;6194685;28;20046;-58
2021/12/08 14:27:34;;;;;;;47.97;20.88;;;;;;;;;;6193289;28;20062;-63
2021/12/08 14:30:35;;;;;;;53.50;20.65;;;;;;;;;;6191419;28;20151;-63
2021/12/08 14:33:36;;;;;;;51.10;19.88;;;;;;;;;;6189709;28;20104;-59
2021/12/08 14:37:14;;;;;;;50.37;23.17;;;;;;;;;;6192247;28;20087;-66
2021/12/08 14:40:18;;;;;;;48.38;20.67;;;;;;;;;;6192057;28;20065;-65
2021/12/08 14:43:35;;;;;;;35.03;16.60;;;;;;;;;;6196157;28;20078;-65
2021/12/08 14:46:36;;;;;;;38.45;17.02;;;;;;;;;;6190608;28;20505;-65
2021/12/08 14:49:41;;;;;;;34.15;14.80;;;;;;;;;;6199403;28;20100;-66
2021/12/08 14:52:42;;;;;;;45.00;16.23;;;;;;;;;;6192103;28;21944;-60
2021/12/08 14:55:43;;;;;;;36.30;16.40;;;;;;;;;;6202302;28;20076;-59
2021/12/08 14:58:44;;;;;;;44.58;18.40;;;;;;;;;;6190681;28;20046;-64
2021/12/08 15:01:45;;;;;;;42.58;18.60;;;;;;;;;;6192258;28;20055;-63
2021/12/08 15:04:46;;;;;;;49.08;19.52;;;;;;;;;;6202874;28;20058;-62
2021/12/08 15:07:48;;;;;;;40.92;16.88;;;;;;;;;;6204110;28;20046;-62
2021/12/08 15:10:49;;;;;;;42.15;18.00;;;;;;;;;;6193255;28;20574;-63
2021/12/08 15:13:51;;;;;;;46.72;18.15;;;;;;;;;;6188864;28;20050;-61
2021/12/08 15:16:55;;;;;;;52.20;19.85;;;;;;;;;;6192805;28;20131;-64
2021/12/08 15:19:57;;;;;;;44.33;17.63;;;;;;;;;;6191618;28;20053;-63
2021/12/08 15:22:58;;;;;;;48.40;19.50;;;;;;;;;;6187448;28;20049;-63
2021/12/08 15:26:03;;;;;;;52.05;18.30;;;;;;;;;;6191026;28;20125;-58
2021/12/08 15:29:15;;;;;;;49.08;19.83;;;;;;;;;;6191592;28;20651;-60
2021/12/08 15:32:16;;;;;;;47.50;20.20;;;;;;;;;;6189613;28;20050;-61
2021/12/08 15:35:18;;;;;;;53.63;20.38;;;;;;;;;;6188794;28;20750;-66
2021/12/08 15:38:20;;;;;;;42.60;18.30;;;;;;;;;;6191459;28;20057;-60
2021/12/08 15:41:24;;;;;;;41.90;17.85;;;;;;;;;;6188161;28;20489;-59
2021/12/08 15:44:25;;;;;;;51.03;20.77;;;;;;;;;;6185742;28;20058;-60
2021/12/08 15:47:26;;;;;;;65.78;22.40;;;;;;;;;;6186100;28;20065;-63
2021/12/08 15:50:43;;;;;;;54.42;21.13;;;;;;;;;;6189468;28;20108;-59
2021/12/08 15:53:44;;;;;;;59.88;23.02;;;;;;;;;;6188609;28;20141;-60
2021/12/08 15:56:46;;;;;;;64.18;24.52;;;;;;;;;;6189439;28;20061;-59
2021/12/08 15:59:52;;;;;;;47.20;21.00;;;;;;;;;;6188041;28;20137;-63
2021/12/08 16:02:53;;;;;;;49.05;20.73;;;;;;;;;;6188810;28;20064;-60
2021/12/08 16:05:54;;;;;;;56.22;22.80;;;;;;;;;;6189839;28;20556;-59
2021/12/08 16:09:14;;;;;;;54.30;20.25;;;;;;;;;;6192801;28;20081;-59
2021/12/08 16:12:15;;;;;;;51.83;21.02;;;;;;;;;;6191553;28;20077;-58
2021/12/08 16:15:15;;;;;;;49.83;19.27;;;;;;;;;;6189581;28;20062;-58
2021/12/08 16:18:23;;;;;;;54.58;21.67;;;;;;;;;;6191360;28;20054;-60
2021/12/08 16:21:23;;;;;;;44.33;17.45;;;;;;;;;;6189627;28;20489;-61
2021/12/08 16:24:24;;;;;;;51.97;20.52;;;;;;;;;;6187411;28;20056;-65
2021/12/08 16:27:29;;;;;;;43.65;17.13;;;;;;;;;;6188579;28;20058;-64
2021/12/08 16:30:30;;;;;;;59.85;21.35;;;;;;;;;;6186332;28;20123;-63
2021/12/08 16:33:30;;;;;;;58.65;22.25;;;;;;;;;;6186926;28;20062;-61
2021/12/08 16:36:31;;;;;;;44.28;18.95;;;;;;;;;;6191435;28;20061;-59
2021/12/08 16:39:42;;;;;;;57.60;21.05;;;;;;;;;;6193171;28;20054;-59
2021/12/08 16:43:03;;;;;;;54.65;19.98;;;;;;;;;;6186030;28;20137;-59
2021/12/08 16:46:03;;;;;;;61.03;24.27;;;;;;;;;;6196453;28;20050;-62
2021/12/08 16:49:04;;;;;;;45.50;17.88;;;;;;;;;;6194742;28;20045;-60
2021/12/08 16:52:05;;;;;;;47.92;19.38;;;;;;;;;;6191419;28;20188;-63
2021/12/08 16:55:06;;;;;;;56.40;20.88;;;;;;;;;;6185364;28;20817;-61
2021/12/08 16:58:09;;;;;;;46.67;18.50;;;;;;;;;;6186833;28;20054;-64
2021/12/08 17:01:10;;;;;;;51.58;19.75;;;;;;;;;;6183215;28;20196;-65
2021/12/08 17:04:11;;;;;;;52.63;19.90;;;;;;;;;;6184803;28;20046;-65
2021/12/08 17:07:14;;;;;;;47.67;18.27;;;;;;;;;;6183943;28;20085;-63
2021/12/08 17:10:16;;;;;;;50.53;18.55;;;;;;;;;;6184469;28;20056;-61
2021/12/08 17:13:17;;;;;;;42.08;18.17;;;;;;;;;;6184743;28;20064;-60
2021/12/08 17:16:18;;;;;;;47.38;18.25;;;;;;;;;;6187999;28;20055;-61
2021/12/08 17:19:20;;;;;;;43.75;17.83;;;;;;;;;;6209535;28;20074;-61
2021/12/08 17:22:20;;;;;;;45.40;17.98;;;;;;;;;;6184694;28;20065;-66
2021/12/08 17:25:22;;;;;;;48.72;18.25;;;;;;;;;;6186882;28;20573;-63
2021/12/08 17:28:26;;;;;;;45.28;19.02;;;;;;;;;;6188166;28;20058;-60
2021/12/08 17:31:27;;;;;;;54.83;21.50;;;;;;;;;;6192408;28;20082;-62
2021/12/08 17:34:28;;;;;;;52.20;20.15;;;;;;;;;;6186848;28;20058;-58
2021/12/08 17:37:29;;;;;;;49.72;18.10;;;;;;;;;;6182658;28;20061;-65
2021/12/08 17:40:30;;;;;;;52.28;20.42;;;;;;;;;;6188774;28;20050;-61
2021/12/08 17:43:32;;;;;;;53.60;20.85;;;;;;;;;;6189802;28;20766;-59
2021/12/08 17:46:33;;;;;;;50.97;21.30;;;;;;;;;;6193498;28;20164;-60
2021/12/08 17:49:35;;;;;;;47.30;19.63;;;;;;;;;;6188535;28;20485;-63
2021/12/08 17:52:35;;;;;;;62.67;24.08;;;;;;;;;;6189222;28;20062;-59
2021/12/08 17:55:36;;;;;;;62.30;23.50;;;;;;;;;;6188732;28;20423;-59
2021/12/08 17:58:42;;;;;;;52.67;21.02;;;;;;;;;;6193595;28;20054;-64
2021/12/08 18:01:43;;;;;;;48.60;20.45;;;;;;;;;;6186771;28;20065;-59
2021/12/08 18:04:43;;;;;;;51.70;19.02;;;;;;;;;;6191750;28;20512;-62
2021/12/08 18:07:45;;;;;;;42.38;18.63;;;;;;;;;;6186593;28;20042;-65
2021/12/08 18:10:46;;;;;;;54.17;21.50;;;;;;;;;;6189929;28;20563;-62
2021/12/08 18:13:46;;;;;;;55.90;23.20;;;;;;;;;;6189794;28;20408;-64
2021/12/08 18:16:48;;;;;;;55.90;22.42;;;;;;;;;;6191250;28;20041;-59
2021/12/08 18:19:49;;;;;;;52.97;20.15;;;;;;;;;;6191356;28;20050;-58
2021/12/08 18:22:51;;;;;;;58.58;22.38;;;;;;;;;;6191110;28;20248;-59
2021/12/08 18:25:53;;;;;;;;;;;;;;;;;;6184992;28;20123;-58
2021/12/08 18:28:54;;;;;;;48.10;21.33;;;;;;;;;;6184102;28;19926;-58
2021/12/08 18:31:56;;;;;;;40.30;17.67;;;;;;;;;;6185409;28;20052;-58
2021/12/08 18:34:59;;;;;;;43.78;18.42;;;;;;;;;;6184553;28;20073;-62
2021/12/08 18:38:02;;;;;;;;;;;;;;;;;;6184459;28;20050;-60
2021/12/08 18:41:07;;;;;;;50.88;19.73;;;;;;;;;;6188268;28;20767;-61
2021/12/08 18:44:08;;;;;;;50.15;20.10;;;;;;;;;;6185369;28;20058;-57
2021/12/08 18:47:09;;;;;;;47.80;19.88;;;;;;;;;;6189736;28;20557;-62
2021/12/08 18:50:10;;;;;;;55.65;22.10;;;;;;;;;;6192632;28;20050;-59
2021/12/08 18:53:11;;;;;;;55.85;22.02;;;;;;;;;;6183887;28;20061;-58